sensor_id;sensor_type;location;lat;lon;timestamp;P1;durP1;ratioP1;P2;durP2;ratioP2
43803;SDS011;29430;52.924;-2.388;2022-11-03T00:01:12;14.35;;;1.20;;
43803;SDS011;29430;52.924;-2.388;2022-11-03T00:06:04;18.90;;;1.08;;
43803;SDS011;29430;52.924;-2.388;2022-11-03T00:11:03;15.27;;;0.80;;
43803;SDS011;29430;52.924;-2.388;2022-11-03T00:16:02;11.23;;;0.95;;
43803;SDS011;29430;52.924;-2.388;2022-11-03T00:20:58;13.20;;;0.98;;
43803;SDS011;29430;52.924;-2.388;2022-11-03T00:25:51;12.95;;;1.00;;
43803;SDS011;29430;52.924;-2.388;2022-11-03T00:30:43;13.02;;;1.02;;
43803;SDS011;29430;52.924;-2.388;2022-11-03T00:35:34;11.05;;;0.85;;
43803;SDS011;29430;52.924;-2.388;2022-11-03T00:40:26;15.40;;;0.70;;
43803;SDS011;29430;52.924;-2.388;2022-11-03T00:45:18;19.60;;;1.10;;
43803;SDS011;29430;52.924;-2.388;2022-11-03T00:50:09;14.25;;;1.13;;
43803;SDS011;29430;52.924;-2.388;2022-11-03T00:55:01;9.68;;;0.70;;
43803;SDS011;29430;52.924;-2.388;2022-11-03T00:59:53;16.23;;;0.85;;
43803;SDS011;29430;52.924;-2.388;2022-11-03T01:04:44;9.43;;;0.70;;
43803;SDS011;29430;52.924;-2.388;2022-11-03T01:09:55;7.93;;;0.60;;
43803;SDS011;29430;52.924;-2.388;2022-11-03T01:14:48;20.95;;;0.82;;
43803;SDS011;29430;52.924;-2.388;2022-11-03T01:19:40;10.32;;;0.70;;
43803;SDS011;29430;52.924;-2.388;2022-11-03T01:24:35;11.00;;;1.25;;
43803;SDS011;29430;52.924;-2.388;2022-11-03T01:29:27;11.07;;;0.70;;
43803;SDS011;29430;52.924;-2.388;2022-11-03T01:34:19;5.90;;;0.70;;
43803;SDS011;29430;52.924;-2.388;2022-11-03T01:39:12;11.13;;;0.80;;
43803;SDS011;29430;52.924;-2.388;2022-11-03T01:49:01;11.05;;;0.63;;
43803;SDS011;29430;52.924;-2.388;2022-11-03T01:53:58;13.70;;;0.82;;
43803;SDS011;29430;52.924;-2.388;2022-11-03T01:58:52;7.30;;;0.60;;
43803;SDS011;29430;52.924;-2.388;2022-11-03T02:04:01;21.88;;;1.13;;
43803;SDS011;29430;52.924;-2.388;2022-11-03T02:09:02;12.45;;;0.70;;
43803;SDS011;29430;52.924;-2.388;2022-11-03T02:13:56;12.98;;;0.88;;
43803;SDS011;29430;52.924;-2.388;2022-11-03T02:18:47;10.93;;;1.08;;
43803;SDS011;29430;52.924;-2.388;2022-11-03T02:23:46;9.50;;;0.63;;
43803;SDS011;29430;52.924;-2.388;2022-11-03T02:28:40;8.20;;;0.82;;
43803;SDS011;29430;52.924;-2.388;2022-11-03T02:44:21;10.30;;;0.50;;
43803;SDS011;29430;52.924;-2.388;2022-11-03T02:49:15;12.00;;;0.60;;
43803;SDS011;29430;52.924;-2.388;2022-11-03T02:59:06;13.07;;;0.73;;
43803;SDS011;29430;52.924;-2.388;2022-11-03T03:04:08;13.27;;;1.17;;
43803;SDS011;29430;52.924;-2.388;2022-11-03T03:09:00;10.05;;;0.82;;
43803;SDS011;29430;52.924;-2.388;2022-11-03T03:13:55;15.23;;;0.80;;
43803;SDS011;29430;52.924;-2.388;2022-11-03T03:19:07;16.15;;;1.20;;
43803;SDS011;29430;52.924;-2.388;2022-11-03T03:29:30;10.85;;;0.73;;
43803;SDS011;29430;52.924;-2.388;2022-11-03T03:34:27;10.10;;;0.70;;
43803;SDS011;29430;52.924;-2.388;2022-11-03T03:39:27;13.20;;;0.77;;
43803;SDS011;29430;52.924;-2.388;2022-11-03T03:44:22;8.82;;;0.60;;
43803;SDS011;29430;52.924;-2.388;2022-11-03T03:49:15;7.80;;;0.60;;
43803;SDS011;29430;52.924;-2.388;2022-11-03T03:54:06;12.95;;;1.02;;
43803;SDS011;29430;52.924;-2.388;2022-11-03T03:58:58;11.93;;;0.90;;
43803;SDS011;29430;52.924;-2.388;2022-11-03T04:03:52;14.48;;;0.82;;
43803;SDS011;29430;52.924;-2.388;2022-11-03T04:08:43;8.95;;;0.60;;
43803;SDS011;29430;52.924;-2.388;2022-11-03T04:13:35;7.43;;;0.50;;
43803;SDS011;29430;52.924;-2.388;2022-11-03T04:18:45;9.60;;;0.57;;
43803;SDS011;29430;52.924;-2.388;2022-11-03T04:23:55;12.32;;;0.82;;
43803;SDS011;29430;52.924;-2.388;2022-11-03T04:28:47;12.98;;;0.93;;
43803;SDS011;29430;52.924;-2.388;2022-11-03T04:33:40;11.73;;;0.77;;
43803;SDS011;29430;52.924;-2.388;2022-11-03T04:38:32;16.38;;;1.65;;
43803;SDS011;29430;52.924;-2.388;2022-11-03T04:43:32;15.57;;;1.17;;
43803;SDS011;29430;52.924;-2.388;2022-11-03T04:48:25;11.77;;;0.70;;
43803;SDS011;29430;52.924;-2.388;2022-11-03T04:53:19;13.68;;;0.50;;
43803;SDS011;29430;52.924;-2.388;2022-11-03T04:58:25;20.50;;;1.00;;
43803;SDS011;29430;52.924;-2.388;2022-11-03T05:03:22;9.77;;;0.93;;
43803;SDS011;29430;52.924;-2.388;2022-11-03T05:08:16;15.80;;;0.80;;
43803;SDS011;29430;52.924;-2.388;2022-11-03T05:13:25;8.43;;;0.88;;
43803;SDS011;29430;52.924;-2.388;2022-11-03T05:18:20;9.35;;;0.90;;
43803;SDS011;29430;52.924;-2.388;2022-11-03T05:23:17;15.95;;;1.05;;
43803;SDS011;29430;52.924;-2.388;2022-11-03T05:38:22;15.65;;;1.38;;
43803;SDS011;29430;52.924;-2.388;2022-11-03T05:43:14;11.88;;;0.98;;
43803;SDS011;29430;52.924;-2.388;2022-11-03T05:48:16;14.02;;;1.27;;
43803;SDS011;29430;52.924;-2.388;2022-11-03T06:03:24;17.38;;;1.77;;
43803;SDS011;29430;52.924;-2.388;2022-11-03T06:08:19;23.00;;;1.20;;
43803;SDS011;29430;52.924;-2.388;2022-11-03T06:13:20;13.23;;;1.00;;
43803;SDS011;29430;52.924;-2.388;2022-11-03T06:18:17;13.43;;;0.85;;
43803;SDS011;29430;52.924;-2.388;2022-11-03T06:23:11;16.92;;;1.10;;
43803;SDS011;29430;52.924;-2.388;2022-11-03T06:28:12;20.58;;;1.30;;
43803;SDS011;29430;52.924;-2.388;2022-11-03T06:33:12;17.15;;;1.10;;
43803;SDS011;29430;52.924;-2.388;2022-11-03T06:38:11;14.85;;;1.20;;
43803;SDS011;29430;52.924;-2.388;2022-11-03T06:48:31;17.73;;;1.58;;
43803;SDS011;29430;52.924;-2.388;2022-11-03T06:53:28;13.52;;;1.10;;
43803;SDS011;29430;52.924;-2.388;2022-11-03T06:58:33;14.02;;;1.20;;
43803;SDS011;29430;52.924;-2.388;2022-11-03T07:03:30;14.40;;;3.00;;
43803;SDS011;29430;52.924;-2.388;2022-11-03T07:08:32;17.77;;;0.90;;
43803;SDS011;29430;52.924;-2.388;2022-11-03T07:13:30;14.55;;;0.90;;
43803;SDS011;29430;52.924;-2.388;2022-11-03T07:18:26;18.83;;;1.15;;
43803;SDS011;29430;52.924;-2.388;2022-11-03T07:23:32;12.82;;;1.58;;
43803;SDS011;29430;52.924;-2.388;2022-11-03T07:28:28;17.27;;;1.83;;
43803;SDS011;29430;52.924;-2.388;2022-11-03T07:33:25;12.25;;;1.80;;
43803;SDS011;29430;52.924;-2.388;2022-11-03T07:38:23;10.27;;;0.70;;
43803;SDS011;29430;52.924;-2.388;2022-11-03T07:43:27;13.95;;;0.82;;
43803;SDS011;29430;52.924;-2.388;2022-11-03T07:48:33;11.38;;;0.82;;
43803;SDS011;29430;52.924;-2.388;2022-11-03T07:53:39;21.30;;;1.60;;
43803;SDS011;29430;52.924;-2.388;2022-11-03T07:58:36;9.88;;;0.88;;
43803;SDS011;29430;52.924;-2.388;2022-11-03T08:03:40;16.75;;;1.70;;
43803;SDS011;29430;52.924;-2.388;2022-11-03T08:08:36;16.20;;;1.35;;
43803;SDS011;29430;52.924;-2.388;2022-11-03T08:13:28;19.40;;;1.48;;
43803;SDS011;29430;52.924;-2.388;2022-11-03T08:18:20;16.48;;;1.70;;
43803;SDS011;29430;52.924;-2.388;2022-11-03T08:23:11;14.60;;;0.85;;
43803;SDS011;29430;52.924;-2.388;2022-11-03T08:28:16;15.07;;;1.00;;
43803;SDS011;29430;52.924;-2.388;2022-11-03T08:33:07;11.43;;;1.13;;
43803;SDS011;29430;52.924;-2.388;2022-11-03T08:38:00;13.68;;;1.17;;
43803;SDS011;29430;52.924;-2.388;2022-11-03T08:42:51;12.77;;;1.33;;
43803;SDS011;29430;52.924;-2.388;2022-11-03T08:47:43;11.82;;;0.90;;
43803;SDS011;29430;52.924;-2.388;2022-11-03T08:52:35;19.02;;;1.80;;
43803;SDS011;29430;52.924;-2.388;2022-11-03T08:57:26;16.23;;;2.15;;
43803;SDS011;29430;52.924;-2.388;2022-11-03T09:02:18;17.35;;;1.10;;
43803;SDS011;29430;52.924;-2.388;2022-11-03T09:07:10;9.32;;;0.90;;
43803;SDS011;29430;52.924;-2.388;2022-11-03T09:12:02;13.75;;;1.08;;
43803;SDS011;29430;52.924;-2.388;2022-11-03T09:16:53;17.27;;;2.03;;
43803;SDS011;29430;52.924;-2.388;2022-11-03T09:21:45;15.68;;;1.02;;
43803;SDS011;29430;52.924;-2.388;2022-11-03T09:26:37;14.80;;;1.15;;
43803;SDS011;29430;52.924;-2.388;2022-11-03T09:31:28;11.88;;;1.20;;
43803;SDS011;29430;52.924;-2.388;2022-11-03T09:36:20;14.25;;;1.10;;
43803;SDS011;29430;52.924;-2.388;2022-11-03T09:41:12;8.77;;;0.70;;
43803;SDS011;29430;52.924;-2.388;2022-11-03T09:46:28;10.23;;;0.77;;
43803;SDS011;29430;52.924;-2.388;2022-11-03T09:51:21;15.75;;;1.45;;
43803;SDS011;29430;52.924;-2.388;2022-11-03T09:56:15;18.20;;;1.23;;
43803;SDS011;29430;52.924;-2.388;2022-11-03T10:01:09;12.05;;;0.88;;
43803;SDS011;29430;52.924;-2.388;2022-11-03T10:06:02;13.02;;;0.80;;
43803;SDS011;29430;52.924;-2.388;2022-11-03T10:10:54;11.25;;;1.20;;
43803;SDS011;29430;52.924;-2.388;2022-11-03T10:15:46;9.90;;;0.82;;
43803;SDS011;29430;52.924;-2.388;2022-11-03T10:20:38;12.48;;;0.95;;
43803;SDS011;29430;52.924;-2.388;2022-11-03T10:25:34;10.82;;;0.75;;
43803;SDS011;29430;52.924;-2.388;2022-11-03T10:30:28;10.73;;;0.50;;
43803;SDS011;29430;52.924;-2.388;2022-11-03T10:35:35;6.93;;;0.60;;
43803;SDS011;29430;52.924;-2.388;2022-11-03T10:40:33;7.13;;;0.98;;
43803;SDS011;29430;52.924;-2.388;2022-11-03T10:45:42;8.13;;;1.13;;
43803;SDS011;29430;52.924;-2.388;2022-11-03T10:50:33;4.20;;;0.47;;
43803;SDS011;29430;52.924;-2.388;2022-11-03T10:55:25;9.32;;;0.65;;
43803;SDS011;29430;52.924;-2.388;2022-11-03T11:00:18;7.53;;;0.70;;
43803;SDS011;29430;52.924;-2.388;2022-11-03T11:05:14;8.00;;;0.80;;
43803;SDS011;29430;52.924;-2.388;2022-11-03T11:20:28;7.57;;;0.88;;
43803;SDS011;29430;52.924;-2.388;2022-11-03T11:25:38;6.93;;;0.50;;
43803;SDS011;29430;52.924;-2.388;2022-11-03T11:31:47;7.35;;;0.70;;
43803;SDS011;29430;52.924;-2.388;2022-11-03T11:36:23;9.32;;;0.68;;
43803;SDS011;29430;52.924;-2.388;2022-11-03T11:41:15;7.25;;;0.50;;
43803;SDS011;29430;52.924;-2.388;2022-11-03T11:46:23;9.52;;;0.88;;
43803;SDS011;29430;52.924;-2.388;2022-11-03T11:51:22;12.45;;;1.10;;
43803;SDS011;29430;52.924;-2.388;2022-11-03T11:56:15;8.55;;;0.80;;
43803;SDS011;29430;52.924;-2.388;2022-11-03T12:01:19;8.85;;;0.75;;
43803;SDS011;29430;52.924;-2.388;2022-11-03T12:06:12;12.07;;;1.20;;
43803;SDS011;29430;52.924;-2.388;2022-11-03T12:11:04;11.50;;;0.95;;
43803;SDS011;29430;52.924;-2.388;2022-11-03T12:15:57;16.20;;;1.10;;
43803;SDS011;29430;52.924;-2.388;2022-11-03T12:20:49;9.63;;;0.95;;
43803;SDS011;29430;52.924;-2.388;2022-11-03T12:25:41;11.15;;;1.42;;
43803;SDS011;29430;52.924;-2.388;2022-11-03T12:30:33;9.48;;;0.70;;
43803;SDS011;29430;52.924;-2.388;2022-11-03T12:35:30;7.50;;;0.60;;
43803;SDS011;29430;52.924;-2.388;2022-11-03T12:40:21;9.40;;;0.80;;
43803;SDS011;29430;52.924;-2.388;2022-11-03T12:45:13;8.65;;;0.65;;
43803;SDS011;29430;52.924;-2.388;2022-11-03T12:50:05;10.75;;;0.73;;
43803;SDS011;29430;52.924;-2.388;2022-11-03T12:54:57;7.63;;;0.63;;
43803;SDS011;29430;52.924;-2.388;2022-11-03T12:59:49;5.22;;;0.50;;
43803;SDS011;29430;52.924;-2.388;2022-11-03T13:04:42;6.43;;;0.70;;
43803;SDS011;29430;52.924;-2.388;2022-11-03T13:09:34;6.97;;;0.50;;
43803;SDS011;29430;52.924;-2.388;2022-11-03T13:14:26;8.70;;;0.88;;
43803;SDS011;29430;52.924;-2.388;2022-11-03T13:19:18;6.95;;;0.80;;
43803;SDS011;29430;52.924;-2.388;2022-11-03T13:24:09;7.50;;;0.50;;
43803;SDS011;29430;52.924;-2.388;2022-11-03T13:29:01;3.92;;;0.47;;
43803;SDS011;29430;52.924;-2.388;2022-11-03T13:33:53;6.38;;;0.50;;
43803;SDS011;29430;52.924;-2.388;2022-11-03T13:38:44;6.72;;;1.35;;
43803;SDS011;29430;52.924;-2.388;2022-11-03T13:43:36;6.70;;;0.40;;
43803;SDS011;29430;52.924;-2.388;2022-11-03T13:48:28;3.72;;;0.60;;
43803;SDS011;29430;52.924;-2.388;2022-11-03T13:53:40;6.15;;;0.40;;
43803;SDS011;29430;52.924;-2.388;2022-11-03T13:58:52;4.45;;;0.38;;
43803;SDS011;29430;52.924;-2.388;2022-11-03T14:04:03;4.45;;;0.30;;
43803;SDS011;29430;52.924;-2.388;2022-11-03T14:09:16;4.32;;;0.40;;
43803;SDS011;29430;52.924;-2.388;2022-11-03T14:14:07;3.20;;;0.30;;
43803;SDS011;29430;52.924;-2.388;2022-11-03T14:18:59;3.13;;;0.30;;
43803;SDS011;29430;52.924;-2.388;2022-11-03T14:23:51;4.25;;;0.70;;
43803;SDS011;29430;52.924;-2.388;2022-11-03T14:28:42;5.35;;;0.47;;
43803;SDS011;29430;52.924;-2.388;2022-11-03T14:33:34;7.10;;;0.40;;
43803;SDS011;29430;52.924;-2.388;2022-11-03T14:38:26;5.22;;;0.40;;
43803;SDS011;29430;52.924;-2.388;2022-11-03T14:43:17;6.65;;;0.38;;
43803;SDS011;29430;52.924;-2.388;2022-11-03T14:48:09;3.58;;;0.30;;
43803;SDS011;29430;52.924;-2.388;2022-11-03T14:53:01;3.92;;;0.28;;
43803;SDS011;29430;52.924;-2.388;2022-11-03T14:57:52;4.40;;;0.40;;
43803;SDS011;29430;52.924;-2.388;2022-11-03T15:02:44;5.00;;;0.40;;
43803;SDS011;29430;52.924;-2.388;2022-11-03T15:07:36;3.78;;;0.50;;
43803;SDS011;29430;52.924;-2.388;2022-11-03T15:12:28;2.00;;;0.17;;
43803;SDS011;29430;52.924;-2.388;2022-11-03T15:17:19;4.53;;;0.30;;
43803;SDS011;29430;52.924;-2.388;2022-11-03T15:22:11;4.18;;;0.20;;
43803;SDS011;29430;52.924;-2.388;2022-11-03T15:27:03;1.13;;;0.20;;
43803;SDS011;29430;52.924;-2.388;2022-11-03T15:31:55;2.92;;;0.50;;
43803;SDS011;29430;52.924;-2.388;2022-11-03T15:36:47;3.92;;;0.50;;
43803;SDS011;29430;52.924;-2.388;2022-11-03T15:41:38;4.28;;;0.50;;
43803;SDS011;29430;52.924;-2.388;2022-11-03T15:46:30;2.80;;;0.40;;
43803;SDS011;29430;52.924;-2.388;2022-11-03T15:51:22;9.52;;;0.80;;
43803;SDS011;29430;52.924;-2.388;2022-11-03T15:56:14;3.38;;;0.50;;
43803;SDS011;29430;52.924;-2.388;2022-11-03T16:01:05;9.10;;;0.55;;
43803;SDS011;29430;52.924;-2.388;2022-11-03T16:05:57;4.88;;;0.45;;
43803;SDS011;29430;52.924;-2.388;2022-11-03T16:10:49;2.53;;;0.50;;
43803;SDS011;29430;52.924;-2.388;2022-11-03T16:15:48;3.00;;;0.47;;
43803;SDS011;29430;52.924;-2.388;2022-11-03T16:20:39;3.88;;;0.45;;
43803;SDS011;29430;52.924;-2.388;2022-11-03T16:25:31;3.13;;;0.40;;
43803;SDS011;29430;52.924;-2.388;2022-11-03T16:30:23;5.00;;;0.50;;
43803;SDS011;29430;52.924;-2.388;2022-11-03T16:35:15;3.15;;;0.50;;
43803;SDS011;29430;52.924;-2.388;2022-11-03T16:40:07;4.53;;;0.65;;
43803;SDS011;29430;52.924;-2.388;2022-11-03T16:45:29;4.95;;;0.45;;
43803;SDS011;29430;52.924;-2.388;2022-11-03T16:50:27;8.27;;;0.60;;
43803;SDS011;29430;52.924;-2.388;2022-11-03T16:55:19;5.50;;;0.98;;
43803;SDS011;29430;52.924;-2.388;2022-11-03T17:00:12;6.00;;;0.68;;
43803;SDS011;29430;52.924;-2.388;2022-11-03T17:05:05;3.90;;;0.30;;
43803;SDS011;29430;52.924;-2.388;2022-11-03T17:09:58;5.45;;;1.13;;
43803;SDS011;29430;52.924;-2.388;2022-11-03T17:14:49;4.25;;;0.50;;
43803;SDS011;29430;52.924;-2.388;2022-11-03T17:19:47;3.30;;;0.20;;
43803;SDS011;29430;52.924;-2.388;2022-11-03T17:24:38;2.10;;;0.30;;
43803;SDS011;29430;52.924;-2.388;2022-11-03T17:34:24;5.10;;;0.40;;
43803;SDS011;29430;52.924;-2.388;2022-11-03T17:39:16;2.25;;;0.30;;
43803;SDS011;29430;52.924;-2.388;2022-11-03T17:44:12;2.08;;;0.60;;
43803;SDS011;29430;52.924;-2.388;2022-11-03T17:49:07;3.17;;;0.55;;
43803;SDS011;29430;52.924;-2.388;2022-11-03T17:53:59;1.60;;;0.30;;
43803;SDS011;29430;52.924;-2.388;2022-11-03T17:58:55;2.38;;;0.50;;
43803;SDS011;29430;52.924;-2.388;2022-11-03T18:03:47;2.63;;;0.43;;
43803;SDS011;29430;52.924;-2.388;2022-11-03T18:08:39;2.72;;;0.50;;
43803;SDS011;29430;52.924;-2.388;2022-11-03T18:13:30;3.28;;;0.52;;
43803;SDS011;29430;52.924;-2.388;2022-11-03T18:18:31;4.32;;;0.40;;
43803;SDS011;29430;52.924;-2.388;2022-11-03T18:23:28;4.25;;;0.30;;
43803;SDS011;29430;52.924;-2.388;2022-11-03T18:28:22;2.38;;;0.30;;
43803;SDS011;29430;52.924;-2.388;2022-11-03T18:38:21;5.40;;;0.82;;
43803;SDS011;29430;52.924;-2.388;2022-11-03T18:43:17;3.83;;;0.80;;
43803;SDS011;29430;52.924;-2.388;2022-11-03T18:48:10;3.53;;;0.60;;
43803;SDS011;29430;52.924;-2.388;2022-11-03T18:53:10;5.72;;;1.00;;
43803;SDS011;29430;52.924;-2.388;2022-11-03T18:58:04;3.15;;;0.68;;
43803;SDS011;29430;52.924;-2.388;2022-11-03T19:02:56;2.95;;;0.80;;
43803;SDS011;29430;52.924;-2.388;2022-11-03T19:07:48;4.20;;;1.00;;
43803;SDS011;29430;52.924;-2.388;2022-11-03T19:12:41;13.52;;;5.32;;
43803;SDS011;29430;52.924;-2.388;2022-11-03T19:17:34;5.10;;;1.30;;
43803;SDS011;29430;52.924;-2.388;2022-11-03T19:22:26;1.80;;;0.50;;
43803;SDS011;29430;52.924;-2.388;2022-11-03T19:32:27;4.22;;;1.70;;
43803;SDS011;29430;52.924;-2.388;2022-11-03T19:37:21;4.88;;;1.08;;
43803;SDS011;29430;52.924;-2.388;2022-11-03T19:42:14;2.88;;;0.70;;
43803;SDS011;29430;52.924;-2.388;2022-11-03T19:47:28;2.55;;;0.93;;
43803;SDS011;29430;52.924;-2.388;2022-11-03T19:52:25;2.33;;;0.40;;
43803;SDS011;29430;52.924;-2.388;2022-11-03T19:57:19;10.02;;;2.53;;
43803;SDS011;29430;52.924;-2.388;2022-11-03T20:02:11;7.00;;;1.73;;
43803;SDS011;29430;52.924;-2.388;2022-11-03T20:07:03;19.67;;;7.18;;
43803;SDS011;29430;52.924;-2.388;2022-11-03T20:11:59;5.47;;;2.80;;
43803;SDS011;29430;52.924;-2.388;2022-11-03T20:16:57;4.15;;;1.10;;
43803;SDS011;29430;52.924;-2.388;2022-11-03T20:21:56;6.57;;;2.72;;
43803;SDS011;29430;52.924;-2.388;2022-11-03T20:26:49;7.55;;;2.50;;
43803;SDS011;29430;52.924;-2.388;2022-11-03T20:31:41;5.70;;;1.20;;
43803;SDS011;29430;52.924;-2.388;2022-11-03T20:36:33;5.93;;;1.50;;
43803;SDS011;29430;52.924;-2.388;2022-11-03T20:41:26;4.95;;;1.50;;
43803;SDS011;29430;52.924;-2.388;2022-11-03T20:46:21;4.20;;;0.85;;
43803;SDS011;29430;52.924;-2.388;2022-11-03T20:51:19;8.55;;;1.50;;
43803;SDS011;29430;52.924;-2.388;2022-11-03T21:01:14;4.78;;;0.85;;
43803;SDS011;29430;52.924;-2.388;2022-11-03T21:06:13;2.85;;;0.45;;
43803;SDS011;29430;52.924;-2.388;2022-11-03T21:11:12;3.13;;;0.60;;
43803;SDS011;29430;52.924;-2.388;2022-11-03T21:16:15;3.83;;;0.70;;
43803;SDS011;29430;52.924;-2.388;2022-11-03T21:21:25;4.32;;;0.70;;
43803;SDS011;29430;52.924;-2.388;2022-11-03T21:26:17;6.50;;;0.80;;
43803;SDS011;29430;52.924;-2.388;2022-11-03T21:31:10;1.65;;;0.60;;
43803;SDS011;29430;52.924;-2.388;2022-11-03T21:36:03;3.15;;;0.90;;
43803;SDS011;29430;52.924;-2.388;2022-11-03T21:40:55;5.30;;;1.38;;
43803;SDS011;29430;52.924;-2.388;2022-11-03T21:46:08;8.20;;;1.77;;
43803;SDS011;29430;52.924;-2.388;2022-11-03T21:51:01;6.97;;;1.67;;
43803;SDS011;29430;52.924;-2.388;2022-11-03T21:55:53;7.28;;;2.40;;
43803;SDS011;29430;52.924;-2.388;2022-11-03T22:00:45;7.28;;;2.10;;
43803;SDS011;29430;52.924;-2.388;2022-11-03T22:05:37;9.20;;;2.38;;
43803;SDS011;29430;52.924;-2.388;2022-11-03T22:10:29;7.07;;;2.10;;
43803;SDS011;29430;52.924;-2.388;2022-11-03T22:15:21;9.32;;;2.72;;
43803;SDS011;29430;52.924;-2.388;2022-11-03T22:20:31;8.63;;;2.00;;
43803;SDS011;29430;52.924;-2.388;2022-11-03T22:25:42;9.75;;;2.30;;
43803;SDS011;29430;52.924;-2.388;2022-11-03T22:30:52;8.43;;;2.50;;
43803;SDS011;29430;52.924;-2.388;2022-11-03T22:36:03;12.27;;;2.88;;
43803;SDS011;29430;52.924;-2.388;2022-11-03T22:41:13;12.55;;;2.63;;
43803;SDS011;29430;52.924;-2.388;2022-11-03T22:46:23;9.13;;;2.60;;
43803;SDS011;29430;52.924;-2.388;2022-11-03T22:51:15;10.85;;;2.30;;
43803;SDS011;29430;52.924;-2.388;2022-11-03T22:56:07;8.40;;;2.35;;
43803;SDS011;29430;52.924;-2.388;2022-11-03T23:01:06;7.55;;;1.73;;
43803;SDS011;29430;52.924;-2.388;2022-11-03T23:06:00;7.03;;;2.10;;
43803;SDS011;29430;52.924;-2.388;2022-11-03T23:11:13;12.40;;;2.72;;
43803;SDS011;29430;52.924;-2.388;2022-11-03T23:16:15;9.20;;;2.10;;
43803;SDS011;29430;52.924;-2.388;2022-11-03T23:21:09;9.50;;;2.00;;
43803;SDS011;29430;52.924;-2.388;2022-11-03T23:26:01;9.10;;;2.20;;
43803;SDS011;29430;52.924;-2.388;2022-11-03T23:30:53;7.57;;;2.35;;
43803;SDS011;29430;52.924;-2.388;2022-11-03T23:35:45;8.95;;;2.88;;
43803;SDS011;29430;52.924;-2.388;2022-11-03T23:40:36;7.70;;;3.00;;
43803;SDS011;29430;52.924;-2.388;2022-11-03T23:45:28;8.23;;;3.00;;
43803;SDS011;29430;52.924;-2.388;2022-11-03T23:50:39;9.60;;;2.78;;
43803;SDS011;29430;52.924;-2.388;2022-11-03T23:55:33;14.25;;;3.22;;
